createdAt,value
2017-10-24T00:02:24.977Z,6.70
2017-10-24T00:04:52.499Z,6.60
2017-10-24T00:07:19.993Z,6.60
2017-10-24T00:09:47.503Z,6.60
2017-10-24T00:12:14.998Z,6.70
2017-10-24T00:14:42.511Z,6.70
2017-10-24T00:17:10.033Z,6.70
2017-10-24T00:19:37.539Z,6.70
2017-10-24T00:22:05.032Z,6.70
2017-10-24T00:24:32.543Z,6.70
2017-10-24T00:27:00.040Z,6.70
2017-10-24T00:29:28.315Z,6.80
2017-10-24T00:31:56.576Z,6.70
2017-10-24T00:34:24.870Z,6.80
2017-10-24T00:36:53.132Z,6.70
2017-10-24T00:39:21.409Z,6.70
2017-10-24T00:41:49.672Z,6.70
2017-10-24T00:44:17.188Z,6.70
2017-10-24T00:46:44.682Z,6.70
2017-10-24T00:49:12.195Z,6.80
2017-10-24T00:51:39.687Z,6.70
2017-10-24T00:54:07.196Z,6.70
2017-10-24T00:56:34.697Z,6.70
2017-10-24T00:59:02.191Z,6.70
2017-10-24T01:01:30.471Z,6.80
2017-10-24T01:03:58.727Z,6.80
2017-10-24T01:06:26.235Z,6.80
2017-10-24T01:08:53.727Z,6.80
2017-10-24T01:11:21.235Z,6.80
2017-10-24T01:13:48.726Z,6.80
2017-10-24T01:16:16.235Z,6.80
2017-10-24T01:18:44.499Z,6.80
2017-10-24T01:21:12.779Z,6.80
2017-10-24T01:23:41.039Z,6.80
2017-10-24T01:26:08.649Z,6.80
2017-10-24T01:28:36.144Z,6.80
2017-10-24T01:31:03.655Z,6.70
2017-10-24T01:33:31.151Z,6.80
2017-10-24T01:35:58.667Z,6.80
2017-10-24T01:38:26.164Z,6.80
2017-10-24T01:40:53.671Z,6.90
2017-10-24T01:43:21.930Z,6.80
2017-10-24T01:45:49.441Z,6.80
2017-10-24T01:48:16.935Z,6.80
2017-10-24T01:50:44.444Z,6.80
2017-10-24T01:53:11.948Z,6.80
2017-10-24T01:55:39.460Z,6.70
2017-10-24T01:58:06.959Z,6.70
2017-10-24T02:00:34.461Z,6.70
2017-10-24T02:03:01.971Z,6.70
2017-10-24T02:05:29.467Z,6.70
2017-10-24T02:07:57.744Z,6.70
2017-10-24T02:10:26.004Z,6.70
2017-10-24T02:12:53.516Z,6.70
2017-10-24T02:15:21.028Z,6.70
2017-10-24T02:17:49.307Z,6.70
2017-10-24T02:20:17.571Z,6.70
2017-10-24T02:22:45.084Z,6.70
2017-10-24T02:25:12.575Z,6.70
2017-10-24T02:27:40.096Z,6.80
2017-10-24T02:30:07.589Z,6.70
2017-10-24T02:32:35.115Z,6.70
2017-10-24T02:35:02.626Z,6.70
2017-10-24T02:37:30.908Z,6.70
2017-10-24T02:39:59.166Z,6.70
2017-10-24T02:42:26.684Z,6.70
2017-10-24T02:44:54.180Z,6.60
2017-10-24T02:47:21.697Z,6.70
2017-10-24T02:49:49.197Z,6.70
2017-10-24T02:52:16.719Z,6.70
2017-10-24T02:54:44.220Z,6.70
2017-10-24T02:57:12.507Z,6.70
2017-10-24T02:59:40.767Z,6.70
2017-10-24T03:02:08.282Z,6.70
2017-10-24T03:04:35.795Z,6.60
2017-10-24T03:07:04.077Z,6.60
2017-10-24T03:09:32.376Z,6.60
2017-10-24T03:11:59.867Z,6.60
2017-10-24T03:14:27.704Z,6.60
2017-10-24T03:16:55.199Z,6.60
2017-10-24T03:19:22.712Z,6.70
2017-10-24T03:21:50.216Z,6.70
2017-10-24T03:24:17.728Z,6.70
2017-10-24T03:26:45.222Z,6.80
2017-10-24T03:29:12.731Z,6.80
2017-10-24T03:31:40.224Z,6.80
2017-10-24T03:34:08.133Z,6.80
2017-10-24T03:36:35.692Z,6.80
2017-10-24T03:39:03.204Z,6.80
2017-10-24T03:41:30.699Z,6.80
2017-10-24T03:43:58.211Z,6.80
2017-10-24T03:46:25.703Z,6.70
2017-10-24T03:48:53.213Z,6.70
2017-10-24T03:51:20.707Z,6.70
2017-10-24T03:53:48.219Z,6.70
2017-10-24T03:56:16.475Z,6.60
2017-10-24T03:58:44.751Z,6.70
2017-10-24T04:01:13.011Z,6.70
2017-10-24T04:03:40.549Z,6.70
2017-10-24T04:06:08.047Z,6.70
2017-10-24T04:08:36.310Z,6.70
2017-10-24T04:11:03.821Z,6.70
2017-10-24T04:13:31.311Z,6.70
2017-10-24T04:15:58.822Z,6.70
2017-10-24T04:18:26.315Z,6.80
2017-10-24T04:20:53.828Z,6.80
2017-10-24T04:23:21.323Z,6.80
2017-10-24T04:25:48.831Z,6.80
2017-10-24T04:28:17.093Z,6.80
2017-10-24T04:30:44.603Z,6.80
2017-10-24T04:33:12.095Z,6.80
2017-10-24T04:35:39.612Z,6.80
2017-10-24T04:38:07.106Z,6.80
2017-10-24T04:40:35.387Z,6.90
2017-10-24T04:43:02.881Z,6.90
2017-10-24T04:45:31.159Z,6.90
2017-10-24T04:47:58.657Z,6.90
2017-10-24T04:50:26.171Z,6.80
2017-10-24T04:52:54.427Z,6.80
2017-10-24T04:55:21.935Z,6.80
2017-10-24T04:57:49.434Z,6.90
2017-10-24T05:00:16.944Z,6.80
2017-10-24T05:02:44.438Z,6.90
2017-10-24T05:05:11.930Z,6.80
2017-10-24T05:07:40.207Z,6.80
2017-10-24T05:10:08.463Z,6.80
2017-10-24T05:12:35.982Z,6.80
2017-10-24T05:15:03.487Z,6.90
2017-10-24T05:17:31.772Z,6.90
2017-10-24T05:20:00.040Z,7.10
2017-10-24T05:22:28.319Z,7.20
2017-10-24T05:24:56.583Z,7.30
2017-10-24T05:27:24.095Z,7.20
2017-10-24T05:29:51.593Z,7.20
2017-10-24T05:32:19.111Z,7.10
2017-10-24T05:34:46.616Z,7.10
2017-10-24T05:37:14.125Z,7.40
2017-10-24T05:39:41.627Z,7.50
2017-10-24T05:42:09.147Z,7.50
2017-10-24T05:44:36.643Z,7.60
2017-10-24T05:47:04.155Z,7.40
2017-10-24T05:49:31.652Z,7.40
2017-10-24T05:51:59.168Z,7.30
2017-10-24T05:54:26.666Z,7.30
2017-10-24T05:56:54.187Z,7.30
2017-10-24T05:59:21.692Z,7.30
2017-10-24T06:01:49.984Z,7.30
2017-10-24T06:04:18.243Z,7.30
2017-10-24T06:06:45.763Z,7.30
2017-10-24T06:09:13.295Z,7.40
2017-10-24T06:11:40.791Z,7.50
2017-10-24T06:14:08.313Z,7.40
2017-10-24T06:16:35.807Z,7.60
2017-10-24T06:19:03.319Z,7.40
2017-10-24T06:21:30.826Z,7.50
2017-10-24T06:23:58.357Z,7.40
2017-10-24T06:26:25.851Z,7.50
2017-10-24T06:28:53.367Z,7.50
2017-10-24T06:31:20.869Z,7.60
2017-10-24T06:33:48.388Z,7.60
2017-10-24T06:36:15.883Z,7.60
2017-10-24T06:38:43.395Z,7.70
2017-10-24T06:41:10.890Z,7.70
2017-10-24T06:43:38.408Z,7.70
2017-10-24T06:46:05.917Z,7.70
2017-10-24T06:48:33.432Z,7.80
2017-10-24T06:51:36.317Z,7.80
2017-10-24T07:08:09.204Z,8.10
2017-10-24T07:10:46.997Z,8.00
2017-10-24T07:16:00.235Z,8.10
2017-10-24T07:18:27.747Z,8.00
2017-10-24T07:20:55.243Z,8.10
2017-10-24T07:23:22.735Z,8.20
2017-10-24T07:25:50.256Z,8.20
2017-10-24T07:28:17.751Z,8.20
2017-10-24T07:30:45.284Z,8.20
2017-10-24T07:33:12.787Z,8.30
2017-10-24T07:35:40.296Z,8.30
2017-10-24T07:38:07.795Z,8.40
2017-10-24T07:40:35.313Z,8.50
2017-10-24T07:43:02.808Z,8.60
2017-10-24T07:45:30.317Z,8.70
2017-10-24T07:47:57.812Z,8.70
2017-10-24T07:50:25.324Z,8.70
2017-10-24T07:52:53.588Z,9.00
2017-10-24T07:55:21.874Z,9.00
2017-10-24T07:57:50.148Z,8.90
2017-10-24T08:00:18.704Z,8.90
2017-10-24T08:02:46.208Z,8.90
2017-10-24T08:05:13.720Z,9.10
2017-10-24T08:07:41.223Z,9.10
2017-10-24T08:10:08.735Z,9.20
2017-10-24T08:12:36.228Z,9.20
2017-10-24T08:15:04.524Z,9.50
2017-10-24T08:17:32.026Z,9.50
2017-10-24T08:22:56.100Z,9.80
2017-10-24T08:25:23.734Z,9.80
2017-10-24T08:27:51.320Z,9.90
2017-10-24T08:30:18.869Z,9.90
2017-10-24T08:32:47.201Z,9.80
2017-10-24T08:35:15.552Z,10.00
2017-10-24T08:37:43.100Z,9.90
2017-10-24T08:40:10.635Z,9.90
2017-10-24T08:42:38.195Z,10.20
2017-10-24T08:45:05.721Z,10.30
2017-10-24T08:47:34.038Z,10.30
2017-10-24T08:55:43.369Z,10.50
2017-10-24T08:58:11.672Z,10.40
2017-10-24T09:00:39.195Z,10.40
2017-10-24T09:03:08.599Z,10.70
2017-10-24T09:05:38.510Z,10.80
2017-10-24T09:08:17.732Z,10.90
2017-10-24T11:23:01.991Z,10.90
2017-10-24T11:25:29.495Z,13.60
2017-10-24T11:27:57.036Z,13.40
2017-10-24T11:30:24.548Z,13.30
2017-10-24T11:32:52.831Z,13.70
2017-10-24T11:35:20.344Z,13.60
2017-10-24T11:37:48.627Z,13.90
2017-10-24T11:40:16.131Z,13.90
2017-10-24T11:42:43.652Z,13.80
2017-10-24T11:45:11.161Z,13.90
2017-10-24T11:47:38.682Z,13.80
2017-10-24T11:50:06.956Z,13.90
2017-10-24T11:52:35.243Z,14.30
2017-10-24T11:55:03.511Z,14.20
2017-10-24T11:57:31.804Z,14.00
2017-10-24T11:59:59.313Z,14.00
2017-10-24T12:02:26.832Z,14.20
2017-10-24T12:04:54.336Z,14.50
2017-10-24T12:07:21.856Z,14.50
2017-10-24T12:09:49.351Z,14.60
2017-10-24T12:12:16.871Z,14.80
2017-10-24T12:14:44.380Z,14.60
2017-10-24T12:17:12.700Z,14.80
2017-10-24T12:19:40.199Z,14.80
2017-10-24T12:22:07.705Z,14.70
2017-10-24T12:24:35.223Z,14.60
2017-10-24T12:27:02.723Z,14.50
2017-10-24T12:29:30.239Z,14.40
2017-10-24T12:31:57.748Z,14.40
2017-10-24T12:34:25.272Z,14.30
2017-10-24T12:36:53.547Z,14.30
2017-10-24T12:39:21.844Z,14.20
2017-10-24T12:41:49.355Z,14.20
2017-10-24T12:44:24.521Z,14.40
2017-10-24T12:47:07.411Z,14.30
2017-10-24T13:02:57.999Z,14.40
2017-10-24T13:05:25.531Z,14.90
2017-10-24T13:07:53.038Z,14.80
2017-10-24T13:10:21.319Z,14.60
2017-10-24T13:12:49.580Z,14.70
2017-10-24T13:15:17.092Z,14.70
2017-10-24T13:17:44.604Z,14.80
2017-10-24T13:20:12.893Z,14.70
2017-10-24T13:22:41.163Z,14.60
2017-10-24T13:25:09.440Z,14.60
2017-10-24T13:27:37.725Z,14.70
2017-10-24T13:30:06.008Z,14.70
2017-10-24T13:32:33.506Z,14.60
2017-10-24T13:35:01.019Z,14.50
2017-10-24T13:37:29.284Z,14.30
2017-10-24T13:39:57.579Z,14.30
2017-10-24T13:42:25.079Z,14.30
2017-10-24T13:44:52.599Z,14.30
2017-10-24T13:47:20.099Z,14.60
2017-10-24T13:49:47.611Z,14.80
2017-10-24T13:52:15.116Z,14.70
2017-10-24T13:54:42.627Z,14.80
2017-10-24T13:57:10.143Z,14.90
2017-10-24T13:59:37.643Z,14.90
2017-10-24T14:02:05.155Z,14.70
2017-10-24T14:04:38.240Z,14.70
2017-10-24T14:07:11.393Z,14.60
2017-10-24T14:09:44.529Z,14.70
2017-10-24T14:12:12.154Z,14.90
2017-10-24T14:14:39.656Z,14.90
2017-10-24T14:17:07.180Z,14.80
2017-10-24T14:19:34.700Z,14.70
2017-10-24T14:22:02.217Z,14.60
2017-10-24T14:24:29.724Z,14.70
2017-10-24T14:26:57.250Z,14.70
2017-10-24T14:29:24.747Z,14.60
2017-10-24T14:31:52.271Z,14.80
2017-10-24T14:34:20.535Z,14.70
2017-10-24T14:36:48.061Z,14.70
2017-10-24T14:39:15.571Z,14.70
2017-10-24T14:41:43.853Z,14.70
2017-10-24T14:44:12.122Z,14.50
2017-10-24T14:46:40.429Z,14.40
2017-10-24T14:49:07.936Z,14.30
2017-10-24T14:51:35.435Z,14.30
2017-10-24T14:54:02.951Z,14.40
2017-10-24T14:56:30.452Z,14.20
2017-10-24T14:58:57.977Z,14.30
2017-10-24T15:01:26.244Z,13.80
2017-10-24T15:03:53.768Z,13.80
2017-10-24T15:06:21.268Z,13.70
2017-10-24T15:08:48.787Z,13.60
2017-10-24T15:11:16.291Z,13.50
2017-10-24T15:13:44.575Z,13.30
2017-10-24T15:16:12.847Z,13.20
2017-10-24T15:18:41.138Z,13.30
2017-10-24T15:21:08.640Z,13.30
2017-10-24T15:23:36.161Z,13.30
2017-10-24T15:26:03.667Z,13.10
2017-10-24T15:28:31.184Z,12.70
2017-10-24T15:30:58.695Z,12.50
2017-10-24T15:33:26.215Z,12.40
2017-10-24T15:35:53.715Z,12.20
2017-10-24T15:38:21.231Z,12.10
2017-10-24T15:40:48.732Z,12.10
2017-10-24T15:43:16.280Z,11.90
2017-10-24T15:45:43.779Z,11.90
2017-10-24T15:48:11.295Z,11.90
2017-10-24T15:50:38.812Z,11.60
2017-10-24T15:53:06.319Z,11.50
2017-10-24T15:55:33.836Z,11.30
2017-10-24T15:58:01.344Z,11.30
2017-10-24T16:00:29.635Z,11.10
2017-10-24T16:06:00.706Z,10.90
2017-10-24T16:08:28.244Z,10.70
2017-10-24T16:10:56.560Z,10.50
2017-10-24T16:13:24.972Z,10.50
2017-10-24T16:15:52.494Z,10.40
2017-10-24T16:18:20.777Z,10.20
2017-10-24T16:20:48.317Z,10.20
2017-10-24T16:29:22.674Z,9.90
2017-10-24T18:37:09.787Z,7.80
2017-10-24T18:39:38.067Z,7.80
2017-10-24T18:42:06.325Z,7.80
2017-10-24T18:44:33.840Z,7.80
2017-10-24T18:47:01.335Z,7.70
2017-10-24T18:49:28.852Z,7.70
2017-10-24T18:51:56.353Z,7.70
2017-10-24T18:54:23.867Z,7.70
2017-10-24T18:56:51.367Z,7.70
2017-10-24T18:59:18.921Z,7.70
2017-10-24T19:01:46.420Z,7.60
2017-10-24T19:04:13.939Z,7.70
2017-10-24T19:06:41.439Z,7.60
2017-10-24T19:09:08.960Z,7.60
2017-10-24T19:11:36.455Z,7.60
2017-10-24T19:14:03.995Z,7.60
2017-10-24T19:16:32.251Z,7.70
2017-10-24T19:18:59.748Z,7.60
2017-10-24T19:21:27.263Z,7.60
2017-10-24T19:23:54.763Z,7.60
2017-10-24T19:26:22.280Z,7.50
2017-10-24T19:28:49.772Z,7.50
2017-10-24T19:31:17.304Z,7.50
2017-10-24T19:33:44.798Z,7.50
2017-10-24T19:36:12.311Z,7.50
2017-10-24T19:38:39.805Z,7.50
2017-10-24T19:41:07.323Z,7.50
2017-10-24T19:43:34.815Z,7.50
2017-10-24T19:46:03.100Z,7.40
2017-10-24T19:48:30.597Z,7.40
2017-10-24T19:50:58.110Z,7.40
2017-10-24T19:53:26.371Z,7.40
2017-10-24T19:55:54.647Z,7.30
2017-10-24T19:58:22.907Z,7.30
2017-10-24T20:00:50.419Z,7.30
2017-10-24T20:03:17.924Z,7.30
2017-10-24T20:05:45.548Z,7.30
2017-10-24T20:08:13.057Z,7.30
2017-10-24T20:10:41.371Z,7.30
2017-10-24T20:13:08.881Z,7.30
2017-10-24T20:15:36.388Z,7.30
2017-10-24T20:18:03.904Z,7.30
2017-10-24T20:20:31.408Z,7.30
2017-10-24T20:22:58.935Z,7.30
2017-10-24T20:25:27.205Z,7.20
2017-10-24T20:27:55.540Z,7.20
2017-10-24T20:30:23.823Z,7.20
2017-10-24T20:32:51.350Z,7.20
2017-10-24T20:35:18.869Z,7.20
2017-10-24T20:37:47.157Z,7.20
2017-10-24T20:40:15.431Z,7.10
2017-10-24T20:42:43.711Z,7.10
2017-10-24T20:45:11.967Z,7.10
2017-10-24T20:47:39.483Z,7.10
2017-10-24T20:50:06.975Z,7.10
2017-10-24T20:52:34.492Z,7.20
2017-10-24T20:55:01.985Z,7.20
2017-10-24T20:57:29.505Z,7.20
2017-10-24T20:59:56.999Z,7.10
2017-10-24T21:02:24.512Z,7.10
2017-10-24T21:04:52.013Z,7.10
2017-10-24T21:07:19.523Z,7.00
2017-10-24T21:09:47.015Z,6.90
2017-10-24T21:12:14.512Z,6.90
2017-10-24T21:14:42.791Z,7.00
2017-10-24T21:17:11.051Z,6.90
2017-10-24T21:19:38.559Z,6.90
2017-10-24T21:22:06.051Z,7.00
2017-10-24T21:24:33.558Z,6.80
2017-10-24T21:27:01.059Z,6.90
2017-10-24T21:29:28.575Z,6.90
2017-10-24T21:31:56.064Z,7.00
2017-10-24T21:34:23.580Z,7.00
2017-10-24T21:36:51.840Z,7.10
2017-10-24T21:39:20.123Z,7.10
2017-10-24T21:41:48.385Z,7.10
2017-10-24T21:44:15.900Z,7.00
2017-10-24T21:46:43.388Z,7.00
2017-10-24T21:49:10.907Z,7.00
2017-10-24T21:51:38.404Z,7.00
2017-10-24T21:54:06.024Z,7.00
2017-10-24T21:56:33.519Z,7.00
2017-10-24T21:59:01.027Z,7.00
2017-10-24T22:01:28.538Z,7.00
2017-10-24T22:03:56.051Z,6.90
2017-10-24T22:06:23.615Z,6.90
2017-10-24T22:08:51.151Z,6.80
2017-10-24T22:11:19.409Z,6.70
2017-10-24T22:13:47.675Z,6.70
2017-10-24T22:16:15.188Z,6.60
2017-10-24T22:18:42.684Z,6.60
2017-10-24T22:21:10.203Z,6.60
2017-10-24T22:23:37.695Z,6.60
2017-10-24T22:26:05.208Z,6.60
2017-10-24T22:28:32.704Z,6.50
2017-10-24T22:31:00.216Z,6.50
2017-10-24T22:33:27.715Z,6.50
2017-10-24T22:35:55.223Z,6.50
2017-10-24T22:38:23.481Z,6.40
2017-10-24T22:40:51.770Z,6.40
2017-10-24T22:43:20.044Z,6.30
2017-10-24T22:45:48.344Z,6.20
2017-10-24T22:48:15.843Z,6.30
2017-10-24T22:50:43.355Z,6.20
2017-10-24T22:53:10.848Z,6.20
2017-10-24T22:55:38.358Z,6.20
2017-10-24T22:58:06.616Z,6.20
2017-10-24T23:00:34.891Z,6.30
2017-10-24T23:03:03.559Z,6.40
2017-10-24T23:05:31.073Z,6.40
2017-10-24T23:07:58.571Z,6.50
2017-10-24T23:10:26.084Z,6.60
2017-10-24T23:12:53.583Z,6.60
2017-10-24T23:15:21.880Z,6.60
2017-10-24T23:17:49.394Z,6.60
2017-10-24T23:20:16.906Z,6.60
2017-10-24T23:22:45.210Z,6.60
2017-10-24T23:25:12.727Z,6.60
2017-10-24T23:27:40.267Z,6.70
2017-10-24T23:30:08.539Z,6.60
2017-10-24T23:32:36.064Z,6.60
2017-10-24T23:35:03.574Z,6.50
2017-10-24T23:37:31.090Z,6.40
2017-10-24T23:39:58.602Z,6.40
2017-10-24T23:42:26.892Z,6.50
2017-10-24T23:44:55.170Z,6.50
2017-10-24T23:47:23.457Z,6.60
2017-10-24T23:49:50.965Z,6.60
2017-10-24T23:52:18.500Z,6.60
2017-10-24T23:54:47.533Z,6.60
2017-10-24T23:57:15.176Z,6.60
2017-10-24T23:59:42.671Z,6.70
